sensor_id;sensor_type;location;lat;lon;timestamp;P1;durP1;ratioP1;P2;durP2;ratioP2
75169;SDS011;63749;49.186;9.222;2023-03-08T00:02:24;10.40;;;5.17;;
75169;SDS011;63749;49.186;9.222;2023-03-08T00:04:52;10.87;;;5.00;;
75169;SDS011;63749;49.186;9.222;2023-03-08T00:07:18;11.82;;;5.13;;
75169;SDS011;63749;49.186;9.222;2023-03-08T00:09:43;11.63;;;5.53;;
75169;SDS011;63749;49.186;9.222;2023-03-08T00:12:09;28.77;;;6.73;;
75169;SDS011;63749;49.186;9.222;2023-03-08T00:14:34;11.00;;;4.90;;
75169;SDS011;63749;49.186;9.222;2023-03-08T00:17:00;12.33;;;4.97;;
75169;SDS011;63749;49.186;9.222;2023-03-08T00:19:26;11.17;;;4.77;;
75169;SDS011;63749;49.186;9.222;2023-03-08T00:21:51;11.63;;;5.47;;
75169;SDS011;63749;49.186;9.222;2023-03-08T00:24:17;13.38;;;5.88;;
75169;SDS011;63749;49.186;9.222;2023-03-08T00:26:43;12.30;;;5.37;;
75169;SDS011;63749;49.186;9.222;2023-03-08T00:29:09;11.90;;;5.28;;
75169;SDS011;63749;49.186;9.222;2023-03-08T00:31:34;11.30;;;5.40;;
75169;SDS011;63749;49.186;9.222;2023-03-08T00:34:00;12.43;;;5.47;;
75169;SDS011;63749;49.186;9.222;2023-03-08T00:36:25;11.00;;;5.20;;
75169;SDS011;63749;49.186;9.222;2023-03-08T00:38:51;11.93;;;5.30;;
75169;SDS011;63749;49.186;9.222;2023-03-08T00:41:16;10.97;;;5.40;;
75169;SDS011;63749;49.186;9.222;2023-03-08T00:43:42;11.80;;;5.18;;
75169;SDS011;63749;49.186;9.222;2023-03-08T00:46:08;11.90;;;4.97;;
75169;SDS011;63749;49.186;9.222;2023-03-08T00:48:34;11.95;;;5.13;;
75169;SDS011;63749;49.186;9.222;2023-03-08T00:50:59;11.90;;;5.60;;
75169;SDS011;63749;49.186;9.222;2023-03-08T00:53:25;10.90;;;5.22;;
75169;SDS011;63749;49.186;9.222;2023-03-08T00:55:51;10.67;;;5.17;;
75169;SDS011;63749;49.186;9.222;2023-03-08T00:58:21;9.50;;;4.85;;
75169;SDS011;63749;49.186;9.222;2023-03-08T01:00:47;10.30;;;5.37;;
75169;SDS011;63749;49.186;9.222;2023-03-08T01:03:13;15.82;;;5.45;;
75169;SDS011;63749;49.186;9.222;2023-03-08T01:05:40;12.13;;;5.67;;
75169;SDS011;63749;49.186;9.222;2023-03-08T01:08:06;10.60;;;5.20;;
75169;SDS011;63749;49.186;9.222;2023-03-08T01:10:32;14.90;;;5.18;;
75169;SDS011;63749;49.186;9.222;2023-03-08T01:12:58;12.83;;;5.43;;
75169;SDS011;63749;49.186;9.222;2023-03-08T01:15:23;14.30;;;5.90;;
75169;SDS011;63749;49.186;9.222;2023-03-08T01:17:49;10.67;;;5.40;;
75169;SDS011;63749;49.186;9.222;2023-03-08T01:20:14;10.97;;;5.63;;
75169;SDS011;63749;49.186;9.222;2023-03-08T01:22:39;12.07;;;5.57;;
75169;SDS011;63749;49.186;9.222;2023-03-08T01:25:05;10.77;;;5.33;;
75169;SDS011;63749;49.186;9.222;2023-03-08T01:27:30;11.73;;;5.90;;
75169;SDS011;63749;49.186;9.222;2023-03-08T01:29:56;13.53;;;5.87;;
75169;SDS011;63749;49.186;9.222;2023-03-08T01:32:21;13.13;;;5.57;;
75169;SDS011;63749;49.186;9.222;2023-03-08T01:34:46;12.00;;;5.70;;
75169;SDS011;63749;49.186;9.222;2023-03-08T01:37:12;10.30;;;5.50;;
75169;SDS011;63749;49.186;9.222;2023-03-08T01:39:37;12.55;;;5.47;;
75169;SDS011;63749;49.186;9.222;2023-03-08T01:42:03;13.10;;;5.73;;
75169;SDS011;63749;49.186;9.222;2023-03-08T01:44:47;12.45;;;5.95;;
75169;SDS011;63749;49.186;9.222;2023-03-08T01:47:26;11.67;;;5.40;;
75169;SDS011;63749;49.186;9.222;2023-03-08T01:49:54;11.30;;;5.32;;
75169;SDS011;63749;49.186;9.222;2023-03-08T01:52:34;12.23;;;5.80;;
75169;SDS011;63749;49.186;9.222;2023-03-08T01:55:04;11.18;;;5.40;;
75169;SDS011;63749;49.186;9.222;2023-03-08T01:57:34;14.15;;;5.45;;
75169;SDS011;63749;49.186;9.222;2023-03-08T02:00:05;14.03;;;5.50;;
75169;SDS011;63749;49.186;9.222;2023-03-08T02:02:40;11.35;;;5.13;;
75169;SDS011;63749;49.186;9.222;2023-03-08T02:05:11;10.00;;;5.00;;
75169;SDS011;63749;49.186;9.222;2023-03-08T02:07:37;9.00;;;4.20;;
75169;SDS011;63749;49.186;9.222;2023-03-08T02:10:03;12.73;;;4.87;;
75169;SDS011;63749;49.186;9.222;2023-03-08T02:12:28;10.77;;;5.13;;
75169;SDS011;63749;49.186;9.222;2023-03-08T02:14:55;12.13;;;5.05;;
75169;SDS011;63749;49.186;9.222;2023-03-08T02:17:21;11.23;;;5.38;;
75169;SDS011;63749;49.186;9.222;2023-03-08T02:19:51;11.20;;;4.80;;
75169;SDS011;63749;49.186;9.222;2023-03-08T02:22:20;9.32;;;4.60;;
75169;SDS011;63749;49.186;9.222;2023-03-08T02:24:45;10.65;;;4.57;;
75169;SDS011;63749;49.186;9.222;2023-03-08T02:27:18;11.97;;;5.30;;
75169;SDS011;63749;49.186;9.222;2023-03-08T02:29:47;10.80;;;5.22;;
75169;SDS011;63749;49.186;9.222;2023-03-08T02:32:13;13.70;;;6.00;;
75169;SDS011;63749;49.186;9.222;2023-03-08T02:34:39;12.07;;;5.60;;
75169;SDS011;63749;49.186;9.222;2023-03-08T02:37:05;11.77;;;5.27;;
75169;SDS011;63749;49.186;9.222;2023-03-08T02:39:30;11.02;;;5.78;;
75169;SDS011;63749;49.186;9.222;2023-03-08T02:41:56;12.87;;;5.60;;
75169;SDS011;63749;49.186;9.222;2023-03-08T02:44:21;13.40;;;5.30;;
75169;SDS011;63749;49.186;9.222;2023-03-08T02:46:46;11.50;;;5.30;;
75169;SDS011;63749;49.186;9.222;2023-03-08T02:49:12;13.60;;;5.50;;
75169;SDS011;63749;49.186;9.222;2023-03-08T02:51:37;12.13;;;5.33;;
75169;SDS011;63749;49.186;9.222;2023-03-08T02:54:02;12.30;;;5.90;;
75169;SDS011;63749;49.186;9.222;2023-03-08T02:56:28;11.33;;;5.23;;
75169;SDS011;63749;49.186;9.222;2023-03-08T02:58:53;15.63;;;5.93;;
75169;SDS011;63749;49.186;9.222;2023-03-08T03:01:19;12.47;;;5.83;;
75169;SDS011;63749;49.186;9.222;2023-03-08T03:03:44;12.03;;;5.47;;
75169;SDS011;63749;49.186;9.222;2023-03-08T03:06:13;13.88;;;5.95;;
75169;SDS011;63749;49.186;9.222;2023-03-08T03:08:40;14.60;;;5.97;;
75169;SDS011;63749;49.186;9.222;2023-03-08T03:11:09;13.93;;;6.45;;
75169;SDS011;63749;49.186;9.222;2023-03-08T03:13:36;13.03;;;6.40;;
75169;SDS011;63749;49.186;9.222;2023-03-08T03:16:08;14.07;;;6.37;;
75169;SDS011;63749;49.186;9.222;2023-03-08T03:18:35;14.52;;;6.65;;
75169;SDS011;63749;49.186;9.222;2023-03-08T03:21:19;12.97;;;6.13;;
75169;SDS011;63749;49.186;9.222;2023-03-08T03:23:45;13.55;;;6.45;;
75169;SDS011;63749;49.186;9.222;2023-03-08T03:26:12;18.17;;;6.90;;
75169;SDS011;63749;49.186;9.222;2023-03-08T03:28:39;15.88;;;6.55;;
75169;SDS011;63749;49.186;9.222;2023-03-08T03:31:05;14.90;;;7.10;;
75169;SDS011;63749;49.186;9.222;2023-03-08T03:33:32;14.10;;;6.72;;
75169;SDS011;63749;49.186;9.222;2023-03-08T03:35:57;15.10;;;6.70;;
75169;SDS011;63749;49.186;9.222;2023-03-08T03:38:22;15.00;;;7.13;;
75169;SDS011;63749;49.186;9.222;2023-03-08T03:40:47;15.60;;;7.00;;
75169;SDS011;63749;49.186;9.222;2023-03-08T03:43:13;17.20;;;7.63;;
75169;SDS011;63749;49.186;9.222;2023-03-08T03:45:38;18.47;;;7.73;;
75169;SDS011;63749;49.186;9.222;2023-03-08T03:48:03;17.63;;;7.10;;
75169;SDS011;63749;49.186;9.222;2023-03-08T03:50:29;16.65;;;7.13;;
75169;SDS011;63749;49.186;9.222;2023-03-08T03:52:54;14.80;;;7.23;;
75169;SDS011;63749;49.186;9.222;2023-03-08T03:55:20;14.87;;;7.30;;
75169;SDS011;63749;49.186;9.222;2023-03-08T03:57:45;16.23;;;7.50;;
75169;SDS011;63749;49.186;9.222;2023-03-08T04:00:11;17.57;;;7.67;;
75169;SDS011;63749;49.186;9.222;2023-03-08T04:02:36;16.97;;;7.20;;
75169;SDS011;63749;49.186;9.222;2023-03-08T04:05:02;19.37;;;7.87;;
75169;SDS011;63749;49.186;9.222;2023-03-08T04:07:27;16.23;;;7.60;;
75169;SDS011;63749;49.186;9.222;2023-03-08T04:09:53;15.53;;;7.33;;
75169;SDS011;63749;49.186;9.222;2023-03-08T04:12:18;19.83;;;7.60;;
75169;SDS011;63749;49.186;9.222;2023-03-08T04:14:43;15.53;;;7.63;;
75169;SDS011;63749;49.186;9.222;2023-03-08T04:17:09;22.97;;;7.93;;
75169;SDS011;63749;49.186;9.222;2023-03-08T04:19:34;16.02;;;7.40;;
75169;SDS011;63749;49.186;9.222;2023-03-08T04:21:59;16.10;;;7.60;;
75169;SDS011;63749;49.186;9.222;2023-03-08T04:24:25;19.77;;;7.60;;
75169;SDS011;63749;49.186;9.222;2023-03-08T04:26:50;17.00;;;7.67;;
75169;SDS011;63749;49.186;9.222;2023-03-08T04:29:15;17.60;;;7.77;;
75169;SDS011;63749;49.186;9.222;2023-03-08T04:31:40;16.40;;;7.47;;
75169;SDS011;63749;49.186;9.222;2023-03-08T04:34:06;18.67;;;7.63;;
75169;SDS011;63749;49.186;9.222;2023-03-08T04:36:31;18.70;;;7.93;;
75169;SDS011;63749;49.186;9.222;2023-03-08T04:38:57;17.77;;;7.80;;
75169;SDS011;63749;49.186;9.222;2023-03-08T04:41:22;17.37;;;8.10;;
75169;SDS011;63749;49.186;9.222;2023-03-08T04:43:49;20.60;;;7.80;;
75169;SDS011;63749;49.186;9.222;2023-03-08T04:46:19;21.53;;;7.63;;
75169;SDS011;63749;49.186;9.222;2023-03-08T04:48:47;17.70;;;7.72;;
75169;SDS011;63749;49.186;9.222;2023-03-08T04:51:13;18.27;;;7.07;;
75169;SDS011;63749;49.186;9.222;2023-03-08T04:53:40;16.52;;;7.47;;
75169;SDS011;63749;49.186;9.222;2023-03-08T04:56:08;18.60;;;8.43;;
75169;SDS011;63749;49.186;9.222;2023-03-08T04:58:34;17.07;;;7.80;;
75169;SDS011;63749;49.186;9.222;2023-03-08T05:01:06;16.35;;;7.47;;
75169;SDS011;63749;49.186;9.222;2023-03-08T05:03:32;16.88;;;7.55;;
75169;SDS011;63749;49.186;9.222;2023-03-08T05:05:58;18.80;;;7.53;;
75169;SDS011;63749;49.186;9.222;2023-03-08T05:08:23;17.07;;;7.93;;
75169;SDS011;63749;49.186;9.222;2023-03-08T05:10:49;17.37;;;7.70;;
75169;SDS011;63749;49.186;9.222;2023-03-08T05:13:24;17.48;;;7.97;;
75169;SDS011;63749;49.186;9.222;2023-03-08T05:15:51;14.23;;;7.10;;
75169;SDS011;63749;49.186;9.222;2023-03-08T05:18:17;17.67;;;7.38;;
75169;SDS011;63749;49.186;9.222;2023-03-08T05:20:42;16.03;;;7.60;;
75169;SDS011;63749;49.186;9.222;2023-03-08T05:23:09;16.60;;;7.18;;
75169;SDS011;63749;49.186;9.222;2023-03-08T05:25:39;18.25;;;7.88;;
75169;SDS011;63749;49.186;9.222;2023-03-08T05:28:05;16.90;;;7.70;;
75169;SDS011;63749;49.186;9.222;2023-03-08T05:30:31;16.23;;;7.03;;
75169;SDS011;63749;49.186;9.222;2023-03-08T05:32:56;14.87;;;6.60;;
75169;SDS011;63749;49.186;9.222;2023-03-08T05:35:22;16.77;;;6.67;;
75169;SDS011;63749;49.186;9.222;2023-03-08T05:37:47;17.17;;;7.30;;
75169;SDS011;63749;49.186;9.222;2023-03-08T05:40:12;15.30;;;6.80;;
75169;SDS011;63749;49.186;9.222;2023-03-08T05:42:38;15.43;;;7.27;;
75169;SDS011;63749;49.186;9.222;2023-03-08T05:45:03;14.87;;;7.00;;
75169;SDS011;63749;49.186;9.222;2023-03-08T05:47:29;15.70;;;7.13;;
75169;SDS011;63749;49.186;9.222;2023-03-08T05:49:54;13.77;;;6.23;;
75169;SDS011;63749;49.186;9.222;2023-03-08T05:52:20;15.03;;;6.93;;
75169;SDS011;63749;49.186;9.222;2023-03-08T05:54:45;14.20;;;6.80;;
75169;SDS011;63749;49.186;9.222;2023-03-08T05:57:12;17.73;;;6.83;;
75169;SDS011;63749;49.186;9.222;2023-03-08T05:59:38;13.70;;;6.80;;
75169;SDS011;63749;49.186;9.222;2023-03-08T06:02:05;15.17;;;6.33;;
75169;SDS011;63749;49.186;9.222;2023-03-08T06:04:34;14.75;;;6.60;;
75169;SDS011;63749;49.186;9.222;2023-03-08T06:06:59;16.13;;;6.80;;
75169;SDS011;63749;49.186;9.222;2023-03-08T06:09:24;12.47;;;6.07;;
75169;SDS011;63749;49.186;9.222;2023-03-08T06:11:50;16.80;;;6.93;;
75169;SDS011;63749;49.186;9.222;2023-03-08T06:14:18;15.63;;;7.40;;
75169;SDS011;63749;49.186;9.222;2023-03-08T06:16:43;17.53;;;6.73;;
75169;SDS011;63749;49.186;9.222;2023-03-08T06:19:12;15.60;;;6.68;;
75169;SDS011;63749;49.186;9.222;2023-03-08T06:21:38;13.98;;;6.45;;
75169;SDS011;63749;49.186;9.222;2023-03-08T06:24:03;16.47;;;6.70;;
75169;SDS011;63749;49.186;9.222;2023-03-08T06:26:28;16.37;;;6.73;;
75169;SDS011;63749;49.186;9.222;2023-03-08T06:28:54;16.03;;;7.50;;
75169;SDS011;63749;49.186;9.222;2023-03-08T06:31:19;18.77;;;7.70;;
75169;SDS011;63749;49.186;9.222;2023-03-08T06:33:45;15.85;;;7.43;;
75169;SDS011;63749;49.186;9.222;2023-03-08T06:36:11;15.63;;;7.17;;
75169;SDS011;63749;49.186;9.222;2023-03-08T06:38:41;14.63;;;7.28;;
75169;SDS011;63749;49.186;9.222;2023-03-08T06:41:07;14.57;;;7.43;;
75169;SDS011;63749;49.186;9.222;2023-03-08T06:43:35;16.27;;;7.38;;
75169;SDS011;63749;49.186;9.222;2023-03-08T06:46:08;15.07;;;7.55;;
75169;SDS011;63749;49.186;9.222;2023-03-08T06:48:36;18.05;;;7.30;;
75169;SDS011;63749;49.186;9.222;2023-03-08T06:51:02;15.60;;;7.10;;
75169;SDS011;63749;49.186;9.222;2023-03-08T06:53:28;15.80;;;7.30;;
75169;SDS011;63749;49.186;9.222;2023-03-08T06:55:54;15.23;;;6.87;;
75169;SDS011;63749;49.186;9.222;2023-03-08T06:58:19;14.35;;;6.75;;
75169;SDS011;63749;49.186;9.222;2023-03-08T07:00:45;15.93;;;6.57;;
75169;SDS011;63749;49.186;9.222;2023-03-08T07:03:10;12.90;;;6.30;;
75169;SDS011;63749;49.186;9.222;2023-03-08T07:05:36;14.07;;;6.72;;
75169;SDS011;63749;49.186;9.222;2023-03-08T07:08:03;19.98;;;7.40;;
75169;SDS011;63749;49.186;9.222;2023-03-08T07:10:29;14.50;;;6.97;;
75169;SDS011;63749;49.186;9.222;2023-03-08T07:12:55;15.13;;;7.07;;
75169;SDS011;63749;49.186;9.222;2023-03-08T07:15:21;15.48;;;7.05;;
75169;SDS011;63749;49.186;9.222;2023-03-08T07:17:48;14.83;;;7.33;;
75169;SDS011;63749;49.186;9.222;2023-03-08T07:20:16;14.75;;;6.72;;
75169;SDS011;63749;49.186;9.222;2023-03-08T07:22:43;14.88;;;7.20;;
75169;SDS011;63749;49.186;9.222;2023-03-08T07:25:10;16.27;;;6.95;;
75169;SDS011;63749;49.186;9.222;2023-03-08T07:27:36;15.40;;;7.30;;
75169;SDS011;63749;49.186;9.222;2023-03-08T07:30:01;15.15;;;6.78;;
75169;SDS011;63749;49.186;9.222;2023-03-08T07:32:27;15.63;;;7.10;;
75169;SDS011;63749;49.186;9.222;2023-03-08T07:34:56;20.10;;;8.15;;
75169;SDS011;63749;49.186;9.222;2023-03-08T07:37:22;20.10;;;7.93;;
75169;SDS011;63749;49.186;9.222;2023-03-08T07:39:47;20.27;;;8.27;;
75169;SDS011;63749;49.186;9.222;2023-03-08T07:42:12;23.23;;;9.37;;
75169;SDS011;63749;49.186;9.222;2023-03-08T07:44:38;19.30;;;7.77;;
75169;SDS011;63749;49.186;9.222;2023-03-08T07:47:04;22.73;;;7.23;;
75169;SDS011;63749;49.186;9.222;2023-03-08T07:49:32;12.40;;;6.60;;
75169;SDS011;63749;49.186;9.222;2023-03-08T07:51:57;16.13;;;8.02;;
75169;SDS011;63749;49.186;9.222;2023-03-08T07:54:23;20.37;;;7.90;;
75169;SDS011;63749;49.186;9.222;2023-03-08T07:56:50;16.25;;;7.85;;
75169;SDS011;63749;49.186;9.222;2023-03-08T07:59:16;15.48;;;7.40;;
75169;SDS011;63749;49.186;9.222;2023-03-08T08:01:42;14.93;;;7.83;;
75169;SDS011;63749;49.186;9.222;2023-03-08T08:04:07;16.43;;;7.93;;
75169;SDS011;63749;49.186;9.222;2023-03-08T08:06:36;17.55;;;8.50;;
75169;SDS011;63749;49.186;9.222;2023-03-08T08:09:01;19.38;;;8.90;;
75169;SDS011;63749;49.186;9.222;2023-03-08T08:11:26;18.17;;;8.23;;
75169;SDS011;63749;49.186;9.222;2023-03-08T08:13:52;18.33;;;8.73;;
75169;SDS011;63749;49.186;9.222;2023-03-08T08:16:17;20.00;;;9.68;;
75169;SDS011;63749;49.186;9.222;2023-03-08T08:18:43;22.40;;;9.10;;
75169;SDS011;63749;49.186;9.222;2023-03-08T08:21:13;22.70;;;8.80;;
75169;SDS011;63749;49.186;9.222;2023-03-08T08:23:40;18.13;;;8.93;;
75169;SDS011;63749;49.186;9.222;2023-03-08T08:26:06;22.23;;;10.38;;
75169;SDS011;63749;49.186;9.222;2023-03-08T08:28:37;22.23;;;9.35;;
75169;SDS011;63749;49.186;9.222;2023-03-08T08:31:07;24.13;;;9.20;;
75169;SDS011;63749;49.186;9.222;2023-03-08T08:33:35;17.27;;;8.77;;
75169;SDS011;63749;49.186;9.222;2023-03-08T08:36:04;22.15;;;9.05;;
75169;SDS011;63749;49.186;9.222;2023-03-08T08:38:35;19.23;;;8.98;;
75169;SDS011;63749;49.186;9.222;2023-03-08T08:41:01;18.90;;;9.43;;
75169;SDS011;63749;49.186;9.222;2023-03-08T08:43:28;18.80;;;8.98;;
75169;SDS011;63749;49.186;9.222;2023-03-08T08:45:54;21.67;;;9.97;;
75169;SDS011;63749;49.186;9.222;2023-03-08T08:48:21;21.45;;;9.63;;
75169;SDS011;63749;49.186;9.222;2023-03-08T08:50:47;21.92;;;9.63;;
75169;SDS011;63749;49.186;9.222;2023-03-08T08:53:13;20.90;;;9.93;;
75169;SDS011;63749;49.186;9.222;2023-03-08T08:55:38;23.15;;;9.73;;
75169;SDS011;63749;49.186;9.222;2023-03-08T08:58:04;20.70;;;9.97;;
75169;SDS011;63749;49.186;9.222;2023-03-08T09:00:30;23.20;;;10.90;;
75169;SDS011;63749;49.186;9.222;2023-03-08T09:02:57;21.10;;;10.13;;
75169;SDS011;63749;49.186;9.222;2023-03-08T09:05:23;21.77;;;10.10;;
75169;SDS011;63749;49.186;9.222;2023-03-08T09:07:48;22.40;;;10.60;;
75169;SDS011;63749;49.186;9.222;2023-03-08T09:10:14;25.37;;;10.53;;
75169;SDS011;63749;49.186;9.222;2023-03-08T09:12:39;25.30;;;11.68;;
75169;SDS011;63749;49.186;9.222;2023-03-08T09:15:06;24.42;;;10.70;;
75169;SDS011;63749;49.186;9.222;2023-03-08T09:17:34;22.87;;;10.77;;
75169;SDS011;63749;49.186;9.222;2023-03-08T09:19:59;22.10;;;10.93;;
75169;SDS011;63749;49.186;9.222;2023-03-08T09:22:25;28.03;;;11.67;;
75169;SDS011;63749;49.186;9.222;2023-03-08T09:24:50;27.57;;;11.47;;
75169;SDS011;63749;49.186;9.222;2023-03-08T09:27:16;26.10;;;10.85;;
75169;SDS011;63749;49.186;9.222;2023-03-08T09:29:41;24.53;;;11.03;;
75169;SDS011;63749;49.186;9.222;2023-03-08T09:32:07;25.07;;;10.43;;
75169;SDS011;63749;49.186;9.222;2023-03-08T09:34:32;24.60;;;11.40;;
75169;SDS011;63749;49.186;9.222;2023-03-08T09:36:58;24.90;;;11.57;;
75169;SDS011;63749;49.186;9.222;2023-03-08T09:39:23;25.75;;;11.68;;
75169;SDS011;63749;49.186;9.222;2023-03-08T09:41:55;23.37;;;11.00;;
75169;SDS011;63749;49.186;9.222;2023-03-08T09:49:41;21.88;;;11.57;;
75169;SDS011;63749;49.186;9.222;2023-03-08T09:52:16;23.65;;;11.32;;
75169;SDS011;63749;49.186;9.222;2023-03-08T09:54:59;22.67;;;10.60;;
75169;SDS011;63749;49.186;9.222;2023-03-08T09:57:28;22.33;;;10.80;;
75169;SDS011;63749;49.186;9.222;2023-03-08T10:00:00;32.75;;;11.68;;
75169;SDS011;63749;49.186;9.222;2023-03-08T10:05:34;35.88;;;12.60;;
75169;SDS011;63749;49.186;9.222;2023-03-08T10:08:17;37.77;;;12.07;;
75169;SDS011;63749;49.186;9.222;2023-03-08T10:10:53;32.15;;;11.60;;
75169;SDS011;63749;49.186;9.222;2023-03-08T10:13:28;37.53;;;12.77;;
75169;SDS011;63749;49.186;9.222;2023-03-08T10:18:51;22.70;;;10.73;;
75169;SDS011;63749;49.186;9.222;2023-03-08T10:21:21;28.17;;;11.40;;
75169;SDS011;63749;49.186;9.222;2023-03-08T10:23:55;24.65;;;11.35;;
75169;SDS011;63749;49.186;9.222;2023-03-08T10:26:35;27.73;;;12.57;;
75169;SDS011;63749;49.186;9.222;2023-03-08T10:29:01;34.20;;;13.33;;
75169;SDS011;63749;49.186;9.222;2023-03-08T10:31:28;50.20;;;13.27;;
75169;SDS011;63749;49.186;9.222;2023-03-08T10:34:02;33.30;;;12.70;;
75169;SDS011;63749;49.186;9.222;2023-03-08T10:36:44;23.73;;;11.77;;
75169;SDS011;63749;49.186;9.222;2023-03-08T10:39:11;27.02;;;12.02;;
75169;SDS011;63749;49.186;9.222;2023-03-08T10:41:45;24.52;;;11.82;;
75169;SDS011;63749;49.186;9.222;2023-03-08T10:44:14;26.48;;;12.15;;
75169;SDS011;63749;49.186;9.222;2023-03-08T10:46:52;25.13;;;11.57;;
75169;SDS011;63749;49.186;9.222;2023-03-08T10:49:18;31.43;;;15.33;;
75169;SDS011;63749;49.186;9.222;2023-03-08T10:51:53;25.30;;;12.67;;
75169;SDS011;63749;49.186;9.222;2023-03-08T10:54:23;27.17;;;12.32;;
75169;SDS011;63749;49.186;9.222;2023-03-08T10:56:51;26.00;;;13.65;;
75169;SDS011;63749;49.186;9.222;2023-03-08T10:59:19;28.13;;;13.60;;
75169;SDS011;63749;49.186;9.222;2023-03-08T11:01:52;27.20;;;12.43;;
75169;SDS011;63749;49.186;9.222;2023-03-08T11:04:21;25.33;;;12.73;;
75169;SDS011;63749;49.186;9.222;2023-03-08T11:06:48;24.30;;;12.30;;
75169;SDS011;63749;49.186;9.222;2023-03-08T11:09:18;25.93;;;13.13;;
75169;SDS011;63749;49.186;9.222;2023-03-08T11:11:54;27.35;;;13.52;;
75169;SDS011;63749;49.186;9.222;2023-03-08T11:14:21;30.80;;;13.27;;
75169;SDS011;63749;49.186;9.222;2023-03-08T11:16:52;23.83;;;11.93;;
75169;SDS011;63749;49.186;9.222;2023-03-08T11:38:58;26.27;;;11.73;;
75169;SDS011;63749;49.186;9.222;2023-03-08T11:41:38;23.98;;;12.13;;
75169;SDS011;63749;49.186;9.222;2023-03-08T11:44:23;29.40;;;12.40;;
75169;SDS011;63749;49.186;9.222;2023-03-08T11:58:23;26.10;;;13.05;;
75169;SDS011;63749;49.186;9.222;2023-03-08T12:01:02;24.92;;;12.68;;
75169;SDS011;63749;49.186;9.222;2023-03-08T12:03:34;26.95;;;14.05;;
75169;SDS011;63749;49.186;9.222;2023-03-08T12:06:09;28.47;;;14.17;;
75169;SDS011;63749;49.186;9.222;2023-03-08T12:08:39;28.75;;;13.75;;
75169;SDS011;63749;49.186;9.222;2023-03-08T12:11:15;27.95;;;14.02;;
75169;SDS011;63749;49.186;9.222;2023-03-08T12:13:52;26.58;;;13.45;;
75169;SDS011;63749;49.186;9.222;2023-03-08T12:16:22;28.15;;;14.32;;
75169;SDS011;63749;49.186;9.222;2023-03-08T12:18:53;26.37;;;13.27;;
75169;SDS011;63749;49.186;9.222;2023-03-08T12:21:47;26.08;;;12.73;;
75169;SDS011;63749;49.186;9.222;2023-03-08T12:26:40;26.17;;;12.80;;
75169;SDS011;63749;49.186;9.222;2023-03-08T12:32:25;26.92;;;13.48;;
75169;SDS011;63749;49.186;9.222;2023-03-08T12:35:02;31.60;;;15.65;;
75169;SDS011;63749;49.186;9.222;2023-03-08T12:43:56;29.45;;;14.00;;
75169;SDS011;63749;49.186;9.222;2023-03-08T12:48:22;27.40;;;14.35;;
75169;SDS011;63749;49.186;9.222;2023-03-08T12:53:29;26.88;;;15.13;;
75169;SDS011;63749;49.186;9.222;2023-03-08T12:58:33;29.20;;;15.88;;
75169;SDS011;63749;49.186;9.222;2023-03-08T13:03:58;26.27;;;14.30;;
75169;SDS011;63749;49.186;9.222;2023-03-08T13:08:59;33.15;;;15.90;;
75169;SDS011;63749;49.186;9.222;2023-03-08T13:11:38;27.50;;;14.80;;
75169;SDS011;63749;49.186;9.222;2023-03-08T13:14:23;29.27;;;15.25;;
75169;SDS011;63749;49.186;9.222;2023-03-08T13:22:49;29.35;;;15.43;;
75169;SDS011;63749;49.186;9.222;2023-03-08T13:25:35;29.40;;;15.10;;
75169;SDS011;63749;49.186;9.222;2023-03-08T13:28:11;26.98;;;14.55;;
75169;SDS011;63749;49.186;9.222;2023-03-08T13:33:22;28.17;;;14.90;;
75169;SDS011;63749;49.186;9.222;2023-03-08T13:35:54;28.50;;;14.90;;
75169;SDS011;63749;49.186;9.222;2023-03-08T13:38:21;27.33;;;14.38;;
75169;SDS011;63749;49.186;9.222;2023-03-08T13:40:52;30.15;;;15.15;;
75169;SDS011;63749;49.186;9.222;2023-03-08T13:43:22;23.27;;;12.53;;
75169;SDS011;63749;49.186;9.222;2023-03-08T13:45:50;23.98;;;13.20;;
75169;SDS011;63749;49.186;9.222;2023-03-08T13:48:18;22.52;;;12.07;;
75169;SDS011;63749;49.186;9.222;2023-03-08T13:50:45;25.98;;;13.32;;
75169;SDS011;63749;49.186;9.222;2023-03-08T13:53:22;24.02;;;13.55;;
75169;SDS011;63749;49.186;9.222;2023-03-08T13:55:51;20.40;;;11.10;;
75169;SDS011;63749;49.186;9.222;2023-03-08T13:58:32;17.80;;;10.15;;
75169;SDS011;63749;49.186;9.222;2023-03-08T14:01:16;19.02;;;10.82;;
75169;SDS011;63749;49.186;9.222;2023-03-08T14:03:44;19.73;;;9.35;;
75169;SDS011;63749;49.186;9.222;2023-03-08T14:06:24;18.48;;;10.15;;
75169;SDS011;63749;49.186;9.222;2023-03-08T14:08:55;14.67;;;8.53;;
75169;SDS011;63749;49.186;9.222;2023-03-08T14:14:32;12.23;;;6.68;;
75169;SDS011;63749;49.186;9.222;2023-03-08T14:16:59;7.18;;;2.60;;
75169;SDS011;63749;49.186;9.222;2023-03-08T14:19:36;2.70;;;1.40;;
75169;SDS011;63749;49.186;9.222;2023-03-08T14:22:08;6.17;;;1.20;;
75169;SDS011;63749;49.186;9.222;2023-03-08T14:24:37;5.88;;;1.30;;
75169;SDS011;63749;49.186;9.222;2023-03-08T14:27:04;9.57;;;1.60;;
75169;SDS011;63749;49.186;9.222;2023-03-08T14:29:59;4.07;;;1.30;;
75169;SDS011;63749;49.186;9.222;2023-03-08T14:32:30;9.55;;;2.10;;
75169;SDS011;63749;49.186;9.222;2023-03-08T14:35:06;8.47;;;1.67;;
75169;SDS011;63749;49.186;9.222;2023-03-08T14:37:46;4.75;;;1.30;;
75169;SDS011;63749;49.186;9.222;2023-03-08T14:42:40;4.83;;;1.10;;
75169;SDS011;63749;49.186;9.222;2023-03-08T14:45:20;10.80;;;1.40;;
75169;SDS011;63749;49.186;9.222;2023-03-08T14:47:52;3.95;;;1.08;;
75169;SDS011;63749;49.186;9.222;2023-03-08T14:52:51;3.38;;;0.90;;
75169;SDS011;63749;49.186;9.222;2023-03-08T14:55:23;4.20;;;1.40;;
75169;SDS011;63749;49.186;9.222;2023-03-08T14:57:51;1.55;;;0.80;;
75169;SDS011;63749;49.186;9.222;2023-03-08T15:00:27;1.90;;;0.90;;
75169;SDS011;63749;49.186;9.222;2023-03-08T15:02:54;2.83;;;0.90;;
75169;SDS011;63749;49.186;9.222;2023-03-08T15:05:21;1.65;;;0.90;;
75169;SDS011;63749;49.186;9.222;2023-03-08T15:07:48;2.90;;;0.93;;
75169;SDS011;63749;49.186;9.222;2023-03-08T15:10:16;1.65;;;0.80;;
75169;SDS011;63749;49.186;9.222;2023-03-08T15:12:45;3.58;;;0.98;;
75169;SDS011;63749;49.186;9.222;2023-03-08T15:15:11;2.63;;;1.10;;
75169;SDS011;63749;49.186;9.222;2023-03-08T15:17:38;3.53;;;1.10;;
75169;SDS011;63749;49.186;9.222;2023-03-08T15:20:03;2.67;;;1.00;;
75169;SDS011;63749;49.186;9.222;2023-03-08T15:22:30;2.80;;;1.10;;
75169;SDS011;63749;49.186;9.222;2023-03-08T15:24:56;2.88;;;1.10;;
75169;SDS011;63749;49.186;9.222;2023-03-08T15:27:22;3.67;;;1.03;;
75169;SDS011;63749;49.186;9.222;2023-03-08T15:29:47;6.10;;;1.60;;
75169;SDS011;63749;49.186;9.222;2023-03-08T15:32:12;3.63;;;1.60;;
75169;SDS011;63749;49.186;9.222;2023-03-08T15:34:38;4.90;;;2.23;;
75169;SDS011;63749;49.186;9.222;2023-03-08T15:37:04;6.35;;;2.40;;
75169;SDS011;63749;49.186;9.222;2023-03-08T15:39:31;7.68;;;2.55;;
75169;SDS011;63749;49.186;9.222;2023-03-08T15:41:56;5.57;;;1.80;;
75169;SDS011;63749;49.186;9.222;2023-03-08T15:44:22;2.30;;;1.40;;
75169;SDS011;63749;49.186;9.222;2023-03-08T15:46:47;3.00;;;1.60;;
75169;SDS011;63749;49.186;9.222;2023-03-08T15:49:12;3.53;;;1.50;;
75169;SDS011;63749;49.186;9.222;2023-03-08T15:51:38;3.40;;;1.58;;
75169;SDS011;63749;49.186;9.222;2023-03-08T15:54:03;3.53;;;1.43;;
75169;SDS011;63749;49.186;9.222;2023-03-08T15:56:30;1.80;;;1.17;;
75169;SDS011;63749;49.186;9.222;2023-03-08T15:58:55;3.20;;;1.47;;
75169;SDS011;63749;49.186;9.222;2023-03-08T16:01:21;1.80;;;1.20;;
75169;SDS011;63749;49.186;9.222;2023-03-08T16:03:52;1.75;;;1.00;;